Terminal Aerodrome Forecast
Issued by NWS

Home | Current Version | Previous Version | Text Only | Print | Product List | Glossary On
Versions: 1 2 3 4 5 6 7 8 9 10 11 12 13 14
000
FTUS45 KFGZ 222339 RRA
TAFGCN
TAF
KGCN 222339Z 2300/2324 28015G25KT P6SM FEW140
     FM230200 36010G15KT P6SM FEW140
     FM231500 26005KT P6SM SCT250=

USA.gov is the U.S. government's official web portal to all federal, state and local government web resources and services.